Messwerte Thief River Falls

Temperatur

Temperatur
°C
1574164800 6.00 6.00 2
1574168400 7.00 7.00 2
1574172000 8.00 8.00 2
1574175600 9.00 9.00 2
1574179200 10.00 10.00
1574182800 11.00 11.00 2
1574186400 12.00 12.00 2
1574190000 13.00 13.00 2
1574193600 14.00 14.00 2
1574197200 15.00 15.00 2
1574200800 16.00 16.00 2
1574204400 17.00 17.00 1
1574208000 18.00 18.00 1
1574211600 19.00 19.00 1
1574215200 20.00 20.00 1
1574218800 21.00 21.00
1574222400 22.00 22.00 1
1574226000 23.00 23.00 1
1574229600 0.00 0.00 1
1574233200 1.00 1.00 1
1574236800 2.00 2.00 1
1574240400 3.00 3.00 1
1574244000 4.00 4.00 1
1574247600 5.00 5.00 1

Aktuellste Messwerte

Wettercharakter
Wetter: Nebel
Temperatur
1 °C
Feuchtigkeit
93 %
Wind
10 km/hWindrichtung: Ost
Luftdruck
1015 hPa
Messzeit: 20. November 2019, 5.00Datenquelle: METAR

Weitere Messstationen in der Nähe

Messstation Temperatur Entfernung
Crookston Municipal Field 1 °C 42 km
Fosston -1 °C 61 km
Grand Forks 0 °C 76 km
Grand Forks Air Force Base 0 °C 92 km
Hallock 1 °C 94 km
Bemidji 0 °C 113 km
Warroad 2 °C 113 km

Wind

Windrichtung Böen Mittelwind
° km/h km/h
1574164800 6.00 5.00 - 6.00 310° 15
1574168400 7.00 6.00 - 7.00 300° 10
1574172000 8.00 7.00 - 8.00 290° 10
1574175600 9.00 8.00 - 9.00 300° 15
1574179200 10.00 9.00 - 10.00
1574182800 11.00 10.00 - 11.00 300° 15
1574186400 12.00 11.00 - 12.00 310° 10
1574190000 13.00 12.00 - 13.00 290° 10
1574193600 14.00 13.00 - 14.00 280° 10
1574197200 15.00 14.00 - 15.00 270° 5
1574200800 16.00 15.00 - 16.00 260° 5
1574204400 17.00 16.00 - 17.00 230° 5
1574208000 18.00 17.00 - 18.00 250° 5
1574211600 19.00 18.00 - 19.00 250° 5
1574215200 20.00 19.00 - 20.00 240° 5
1574218800 21.00 20.00 - 21.00
1574222400 22.00 21.00 - 22.00 0
1574226000 23.00 22.00 - 23.00 0
1574229600 0.00 23.00 - 0.00 170° 5
1574233200 1.00 0.00 - 1.00 140° 0
1574236800 2.00 1.00 - 2.00 0
1574240400 3.00 2.00 - 3.00 150° 5
1574244000 4.00 3.00 - 4.00 120° 0
1574247600 5.00 4.00 - 5.00 110° 10

Ihre Wetterstation

Fehlt Ihre Wetterstation auf unserem Portal?

Schreiben Sie an network@meteonews.ch

Klima

Wann ist es am wärmsten? Wann regnet es am wenigsten? Unsere Klimadaten geben Auskunft.